sensor_id;sensor_type;location;lat;lon;timestamp;temperature;humidity
56076;DHT22;41951;49.022;12.066;2023-08-07T00:00:09;12.40;99.90
56076;DHT22;41951;49.022;12.066;2023-08-07T00:02:35;12.40;99.90
56076;DHT22;41951;49.022;12.066;2023-08-07T00:05:01;12.40;99.90
56076;DHT22;41951;49.022;12.066;2023-08-07T00:07:27;12.40;99.90
56076;DHT22;41951;49.022;12.066;2023-08-07T00:09:52;12.40;99.90
56076;DHT22;41951;49.022;12.066;2023-08-07T00:12:18;12.40;99.90
56076;DHT22;41951;49.022;12.066;2023-08-07T00:14:43;12.30;99.90
56076;DHT22;41951;49.022;12.066;2023-08-07T00:17:09;12.30;99.90
56076;DHT22;41951;49.022;12.066;2023-08-07T00:19:34;12.40;99.90
56076;DHT22;41951;49.022;12.066;2023-08-07T00:22:00;12.40;99.90
56076;DHT22;41951;49.022;12.066;2023-08-07T00:24:26;12.40;99.90
56076;DHT22;41951;49.022;12.066;2023-08-07T00:26:51;12.30;99.90
56076;DHT22;41951;49.022;12.066;2023-08-07T00:29:17;12.30;99.90
56076;DHT22;41951;49.022;12.066;2023-08-07T00:31:42;12.30;99.90
56076;DHT22;41951;49.022;12.066;2023-08-07T00:34:08;12.30;99.90
56076;DHT22;41951;49.022;12.066;2023-08-07T00:36:35;12.30;99.90
56076;DHT22;41951;49.022;12.066;2023-08-07T00:39:01;12.30;99.90
56076;DHT22;41951;49.022;12.066;2023-08-07T00:41:29;12.20;99.90
56076;DHT22;41951;49.022;12.066;2023-08-07T00:43:54;12.30;99.90
56076;DHT22;41951;49.022;12.066;2023-08-07T00:46:20;12.30;99.90
56076;DHT22;41951;49.022;12.066;2023-08-07T00:48:46;12.20;99.90
56076;DHT22;41951;49.022;12.066;2023-08-07T00:51:11;12.20;99.90
56076;DHT22;41951;49.022;12.066;2023-08-07T00:53:38;12.20;99.90
56076;DHT22;41951;49.022;12.066;2023-08-07T00:56:05;12.20;99.90
56076;DHT22;41951;49.022;12.066;2023-08-07T00:58:31;12.20;99.90
56076;DHT22;41951;49.022;12.066;2023-08-07T01:00:58;12.20;99.90
56076;DHT22;41951;49.022;12.066;2023-08-07T01:03:24;12.20;99.90
56076;DHT22;41951;49.022;12.066;2023-08-07T01:05:49;12.20;99.90
56076;DHT22;41951;49.022;12.066;2023-08-07T01:08:15;12.20;99.90
56076;DHT22;41951;49.022;12.066;2023-08-07T01:16:28;12.20;99.90
56076;DHT22;41951;49.022;12.066;2023-08-07T01:18:57;12.10;99.90
56076;DHT22;41951;49.022;12.066;2023-08-07T01:21:24;12.10;99.90
56076;DHT22;41951;49.022;12.066;2023-08-07T01:23:49;12.10;99.90
56076;DHT22;41951;49.022;12.066;2023-08-07T01:26:17;12.10;99.90
56076;DHT22;41951;49.022;12.066;2023-08-07T01:28:52;12.10;99.90
56076;DHT22;41951;49.022;12.066;2023-08-07T01:31:24;12.10;99.90
56076;DHT22;41951;49.022;12.066;2023-08-07T01:33:57;12.20;99.90
56076;DHT22;41951;49.022;12.066;2023-08-07T01:36:27;12.10;99.90
56076;DHT22;41951;49.022;12.066;2023-08-07T01:38:55;12.10;99.90
56076;DHT22;41951;49.022;12.066;2023-08-07T01:41:22;12.10;99.90
56076;DHT22;41951;49.022;12.066;2023-08-07T01:43:48;12.20;99.90
56076;DHT22;41951;49.022;12.066;2023-08-07T01:46:13;12.20;99.90
56076;DHT22;41951;49.022;12.066;2023-08-07T01:48:39;12.10;99.90
56076;DHT22;41951;49.022;12.066;2023-08-07T01:51:05;12.20;99.90
56076;DHT22;41951;49.022;12.066;2023-08-07T01:53:30;12.20;99.90
56076;DHT22;41951;49.022;12.066;2023-08-07T01:55:56;12.10;99.90
56076;DHT22;41951;49.022;12.066;2023-08-07T01:58:21;12.10;99.90
56076;DHT22;41951;49.022;12.066;2023-08-07T02:00:47;12.10;99.90
56076;DHT22;41951;49.022;12.066;2023-08-07T02:03:13;12.10;99.90
56076;DHT22;41951;49.022;12.066;2023-08-07T02:05:38;12.10;99.90
56076;DHT22;41951;49.022;12.066;2023-08-07T02:08:04;12.10;99.90
56076;DHT22;41951;49.022;12.066;2023-08-07T02:10:30;12.10;99.90
56076;DHT22;41951;49.022;12.066;2023-08-07T02:12:57;12.10;99.90
56076;DHT22;41951;49.022;12.066;2023-08-07T02:15:23;12.10;99.90
56076;DHT22;41951;49.022;12.066;2023-08-07T02:17:48;12.10;99.90
56076;DHT22;41951;49.022;12.066;2023-08-07T02:20:14;12.00;99.90
56076;DHT22;41951;49.022;12.066;2023-08-07T02:22:39;12.00;99.90
56076;DHT22;41951;49.022;12.066;2023-08-07T02:25:05;12.00;99.90
56076;DHT22;41951;49.022;12.066;2023-08-07T02:27:31;12.00;99.90
56076;DHT22;41951;49.022;12.066;2023-08-07T02:29:57;12.10;99.90
56076;DHT22;41951;49.022;12.066;2023-08-07T02:32:22;12.00;99.90
56076;DHT22;41951;49.022;12.066;2023-08-07T02:34:48;12.00;99.90
56076;DHT22;41951;49.022;12.066;2023-08-07T02:37:13;12.10;99.90
56076;DHT22;41951;49.022;12.066;2023-08-07T02:39:40;12.00;99.90
56076;DHT22;41951;49.022;12.066;2023-08-07T02:42:05;12.00;99.90
56076;DHT22;41951;49.022;12.066;2023-08-07T02:44:31;12.10;99.90
56076;DHT22;41951;49.022;12.066;2023-08-07T02:46:57;12.00;99.90
56076;DHT22;41951;49.022;12.066;2023-08-07T02:49:22;12.00;99.90
56076;DHT22;41951;49.022;12.066;2023-08-07T02:51:48;12.10;99.90
56076;DHT22;41951;49.022;12.066;2023-08-07T02:54:13;12.00;99.90
56076;DHT22;41951;49.022;12.066;2023-08-07T02:56:39;12.00;99.90
56076;DHT22;41951;49.022;12.066;2023-08-07T02:59:04;12.00;99.90
56076;DHT22;41951;49.022;12.066;2023-08-07T03:01:31;12.00;99.90
56076;DHT22;41951;49.022;12.066;2023-08-07T03:03:57;12.00;99.90
56076;DHT22;41951;49.022;12.066;2023-08-07T03:06:22;11.90;99.90
56076;DHT22;41951;49.022;12.066;2023-08-07T03:08:48;12.00;99.90
56076;DHT22;41951;49.022;12.066;2023-08-07T03:11:13;11.90;99.90
56076;DHT22;41951;49.022;12.066;2023-08-07T03:13:39;11.90;99.90
56076;DHT22;41951;49.022;12.066;2023-08-07T03:16:06;11.90;99.90
56076;DHT22;41951;49.022;12.066;2023-08-07T03:18:33;11.90;99.90
56076;DHT22;41951;49.022;12.066;2023-08-07T03:20:59;11.90;99.90
56076;DHT22;41951;49.022;12.066;2023-08-07T03:23:25;11.90;99.90
56076;DHT22;41951;49.022;12.066;2023-08-07T03:25:51;11.90;99.90
56076;DHT22;41951;49.022;12.066;2023-08-07T03:28:26;11.90;99.90
56076;DHT22;41951;49.022;12.066;2023-08-07T03:30:52;11.90;99.90
56076;DHT22;41951;49.022;12.066;2023-08-07T03:33:17;11.90;99.90
56076;DHT22;41951;49.022;12.066;2023-08-07T03:35:43;11.90;99.90
56076;DHT22;41951;49.022;12.066;2023-08-07T03:38:08;11.90;99.90
56076;DHT22;41951;49.022;12.066;2023-08-07T03:40:34;11.80;99.90
56076;DHT22;41951;49.022;12.066;2023-08-07T03:42:59;11.90;99.90
56076;DHT22;41951;49.022;12.066;2023-08-07T03:45:25;11.80;99.90
56076;DHT22;41951;49.022;12.066;2023-08-07T03:47:50;11.80;99.90
56076;DHT22;41951;49.022;12.066;2023-08-07T03:50:16;11.80;99.90
56076;DHT22;41951;49.022;12.066;2023-08-07T03:52:42;11.80;99.90
56076;DHT22;41951;49.022;12.066;2023-08-07T03:55:07;11.80;99.90
56076;DHT22;41951;49.022;12.066;2023-08-07T03:57:33;11.70;99.90
56076;DHT22;41951;49.022;12.066;2023-08-07T03:59:58;11.30;99.90
56076;DHT22;41951;49.022;12.066;2023-08-07T04:02:24;11.80;99.90
56076;DHT22;41951;49.022;12.066;2023-08-07T04:04:50;11.80;99.90
56076;DHT22;41951;49.022;12.066;2023-08-07T04:07:16;11.70;99.90
56076;DHT22;41951;49.022;12.066;2023-08-07T04:09:42;11.70;99.90
56076;DHT22;41951;49.022;12.066;2023-08-07T04:12:07;11.70;99.90
56076;DHT22;41951;49.022;12.066;2023-08-07T04:14:33;11.70;99.90
56076;DHT22;41951;49.022;12.066;2023-08-07T04:16:58;11.70;99.90
56076;DHT22;41951;49.022;12.066;2023-08-07T04:19:26;11.70;99.90
56076;DHT22;41951;49.022;12.066;2023-08-07T04:21:51;11.60;99.90
56076;DHT22;41951;49.022;12.066;2023-08-07T04:24:17;11.60;99.90
56076;DHT22;41951;49.022;12.066;2023-08-07T04:26:42;11.70;99.90
56076;DHT22;41951;49.022;12.066;2023-08-07T04:29:08;11.60;99.90
56076;DHT22;41951;49.022;12.066;2023-08-07T04:31:34;11.60;99.90
56076;DHT22;41951;49.022;12.066;2023-08-07T04:33:59;11.60;99.90
56076;DHT22;41951;49.022;12.066;2023-08-07T04:36:25;11.60;99.90
56076;DHT22;41951;49.022;12.066;2023-08-07T04:38:51;11.60;99.90
56076;DHT22;41951;49.022;12.066;2023-08-07T04:41:16;11.60;99.90
56076;DHT22;41951;49.022;12.066;2023-08-07T04:43:42;11.60;99.90
56076;DHT22;41951;49.022;12.066;2023-08-07T04:46:09;11.60;99.90
56076;DHT22;41951;49.022;12.066;2023-08-07T04:48:35;11.60;99.90
56076;DHT22;41951;49.022;12.066;2023-08-07T04:51:02;11.60;99.90
56076;DHT22;41951;49.022;12.066;2023-08-07T04:53:27;11.60;99.90
56076;DHT22;41951;49.022;12.066;2023-08-07T04:55:53;11.60;99.90
56076;DHT22;41951;49.022;12.066;2023-08-07T04:58:18;11.60;99.90
56076;DHT22;41951;49.022;12.066;2023-08-07T05:00:44;11.60;99.90
56076;DHT22;41951;49.022;12.066;2023-08-07T05:03:10;11.60;99.90
56076;DHT22;41951;49.022;12.066;2023-08-07T05:05:35;11.60;99.90
56076;DHT22;41951;49.022;12.066;2023-08-07T05:08:01;11.60;99.90
56076;DHT22;41951;49.022;12.066;2023-08-07T05:10:26;11.50;99.90
56076;DHT22;41951;49.022;12.066;2023-08-07T05:12:52;11.60;99.90
56076;DHT22;41951;49.022;12.066;2023-08-07T05:15:25;11.60;99.90
56076;DHT22;41951;49.022;12.066;2023-08-07T05:17:51;11.60;99.90
56076;DHT22;41951;49.022;12.066;2023-08-07T05:20:17;11.60;99.90
56076;DHT22;41951;49.022;12.066;2023-08-07T05:22:43;11.60;99.90
56076;DHT22;41951;49.022;12.066;2023-08-07T05:25:09;11.60;99.90
56076;DHT22;41951;49.022;12.066;2023-08-07T05:27:36;11.60;99.90
56076;DHT22;41951;49.022;12.066;2023-08-07T05:30:03;11.60;99.90
56076;DHT22;41951;49.022;12.066;2023-08-07T05:32:28;11.60;99.90
56076;DHT22;41951;49.022;12.066;2023-08-07T05:34:54;11.60;99.90
56076;DHT22;41951;49.022;12.066;2023-08-07T05:37:20;11.50;99.90
56076;DHT22;41951;49.022;12.066;2023-08-07T05:39:46;11.50;99.90
56076;DHT22;41951;49.022;12.066;2023-08-07T05:42:12;11.50;99.90
56076;DHT22;41951;49.022;12.066;2023-08-07T05:44:37;11.50;99.90
56076;DHT22;41951;49.022;12.066;2023-08-07T05:47:03;11.50;99.90
56076;DHT22;41951;49.022;12.066;2023-08-07T05:49:29;11.50;99.90
56076;DHT22;41951;49.022;12.066;2023-08-07T05:51:55;11.50;99.90
56076;DHT22;41951;49.022;12.066;2023-08-07T05:54:20;11.50;99.90
56076;DHT22;41951;49.022;12.066;2023-08-07T05:56:46;11.50;99.90
56076;DHT22;41951;49.022;12.066;2023-08-07T05:59:12;11.40;99.90
56076;DHT22;41951;49.022;12.066;2023-08-07T06:01:37;11.40;99.90
56076;DHT22;41951;49.022;12.066;2023-08-07T06:04:03;11.50;99.90
56076;DHT22;41951;49.022;12.066;2023-08-07T06:06:29;11.50;99.90
56076;DHT22;41951;49.022;12.066;2023-08-07T06:08:55;11.50;99.90
56076;DHT22;41951;49.022;12.066;2023-08-07T06:11:20;11.50;99.90
56076;DHT22;41951;49.022;12.066;2023-08-07T06:13:46;11.50;99.90
56076;DHT22;41951;49.022;12.066;2023-08-07T06:16:12;11.60;99.90
56076;DHT22;41951;49.022;12.066;2023-08-07T06:18:38;11.60;99.90
56076;DHT22;41951;49.022;12.066;2023-08-07T06:21:03;11.50;99.90
56076;DHT22;41951;49.022;12.066;2023-08-07T06:23:33;11.50;99.90
56076;DHT22;41951;49.022;12.066;2023-08-07T06:25:59;11.50;99.90
56076;DHT22;41951;49.022;12.066;2023-08-07T06:28:24;11.60;99.90
56076;DHT22;41951;49.022;12.066;2023-08-07T06:30:50;11.60;99.90
56076;DHT22;41951;49.022;12.066;2023-08-07T06:33:16;11.50;99.90
56076;DHT22;41951;49.022;12.066;2023-08-07T06:35:41;11.50;99.90
56076;DHT22;41951;49.022;12.066;2023-08-07T06:38:08;11.50;99.90
56076;DHT22;41951;49.022;12.066;2023-08-07T06:40:35;11.50;99.90
56076;DHT22;41951;49.022;12.066;2023-08-07T06:43:01;11.50;99.90
56076;DHT22;41951;49.022;12.066;2023-08-07T06:45:26;11.50;99.90
56076;DHT22;41951;49.022;12.066;2023-08-07T06:47:52;11.60;99.90
56076;DHT22;41951;49.022;12.066;2023-08-07T06:50:17;11.60;99.90
56076;DHT22;41951;49.022;12.066;2023-08-07T06:52:43;11.60;99.90
56076;DHT22;41951;49.022;12.066;2023-08-07T06:55:08;11.60;99.90
56076;DHT22;41951;49.022;12.066;2023-08-07T06:57:34;11.60;99.90
56076;DHT22;41951;49.022;12.066;2023-08-07T07:00:00;11.60;99.90
56076;DHT22;41951;49.022;12.066;2023-08-07T07:02:25;11.60;99.90
56076;DHT22;41951;49.022;12.066;2023-08-07T07:04:51;11.60;99.90
56076;DHT22;41951;49.022;12.066;2023-08-07T07:07:18;11.70;99.90
56076;DHT22;41951;49.022;12.066;2023-08-07T07:09:43;11.70;99.90
56076;DHT22;41951;49.022;12.066;2023-08-07T07:12:09;11.70;99.90
56076;DHT22;41951;49.022;12.066;2023-08-07T07:14:34;11.70;99.90
56076;DHT22;41951;49.022;12.066;2023-08-07T07:17:00;11.70;99.90
56076;DHT22;41951;49.022;12.066;2023-08-07T07:19:26;11.70;99.90
56076;DHT22;41951;49.022;12.066;2023-08-07T07:21:51;11.80;99.90
56076;DHT22;41951;49.022;12.066;2023-08-07T07:24:17;11.80;99.90
56076;DHT22;41951;49.022;12.066;2023-08-07T07:26:43;11.80;99.90
56076;DHT22;41951;49.022;12.066;2023-08-07T07:29:08;11.80;99.90
56076;DHT22;41951;49.022;12.066;2023-08-07T07:31:34;11.80;99.90
56076;DHT22;41951;49.022;12.066;2023-08-07T07:34:00;11.80;99.90
56076;DHT22;41951;49.022;12.066;2023-08-07T07:36:25;11.80;99.90
56076;DHT22;41951;49.022;12.066;2023-08-07T07:38:51;11.90;99.90
56076;DHT22;41951;49.022;12.066;2023-08-07T07:41:16;11.90;99.90
56076;DHT22;41951;49.022;12.066;2023-08-07T07:43:43;11.90;99.90
56076;DHT22;41951;49.022;12.066;2023-08-07T07:46:08;11.90;99.90
56076;DHT22;41951;49.022;12.066;2023-08-07T07:48:34;11.90;99.90
56076;DHT22;41951;49.022;12.066;2023-08-07T07:51:03;11.90;99.90
56076;DHT22;41951;49.022;12.066;2023-08-07T07:53:29;11.90;99.90
56076;DHT22;41951;49.022;12.066;2023-08-07T07:55:55;11.90;99.90
56076;DHT22;41951;49.022;12.066;2023-08-07T07:58:21;11.90;99.90
56076;DHT22;41951;49.022;12.066;2023-08-07T08:00:47;11.90;99.90
56076;DHT22;41951;49.022;12.066;2023-08-07T08:03:12;11.90;99.90
56076;DHT22;41951;49.022;12.066;2023-08-07T08:05:39;12.00;99.90
56076;DHT22;41951;49.022;12.066;2023-08-07T08:08:06;11.90;99.90
56076;DHT22;41951;49.022;12.066;2023-08-07T08:10:32;11.90;99.90
56076;DHT22;41951;49.022;12.066;2023-08-07T08:12:59;12.00;99.90
56076;DHT22;41951;49.022;12.066;2023-08-07T08:15:25;12.00;99.90
56076;DHT22;41951;49.022;12.066;2023-08-07T08:17:50;11.90;99.90
56076;DHT22;41951;49.022;12.066;2023-08-07T08:20:16;12.00;99.90
56076;DHT22;41951;49.022;12.066;2023-08-07T08:22:46;11.90;99.90
56076;DHT22;41951;49.022;12.066;2023-08-07T08:25:12;12.00;99.90
56076;DHT22;41951;49.022;12.066;2023-08-07T08:27:39;12.00;99.90
56076;DHT22;41951;49.022;12.066;2023-08-07T08:30:05;11.90;99.90
56076;DHT22;41951;49.022;12.066;2023-08-07T08:32:31;12.00;99.90
56076;DHT22;41951;49.022;12.066;2023-08-07T08:34:57;12.00;99.90
56076;DHT22;41951;49.022;12.066;2023-08-07T08:37:23;12.10;99.90
56076;DHT22;41951;49.022;12.066;2023-08-07T08:39:49;12.10;99.90
56076;DHT22;41951;49.022;12.066;2023-08-07T08:42:15;12.10;99.90
56076;DHT22;41951;49.022;12.066;2023-08-07T08:44:46;12.20;99.90
56076;DHT22;41951;49.022;12.066;2023-08-07T08:47:14;12.20;99.90
56076;DHT22;41951;49.022;12.066;2023-08-07T08:49:49;12.20;99.90
56076;DHT22;41951;49.022;12.066;2023-08-07T08:52:16;12.10;99.90
56076;DHT22;41951;49.022;12.066;2023-08-07T08:54:43;12.20;99.90
56076;DHT22;41951;49.022;12.066;2023-08-07T08:57:09;12.10;99.90
56076;DHT22;41951;49.022;12.066;2023-08-07T08:59:34;12.20;99.90
56076;DHT22;41951;49.022;12.066;2023-08-07T09:02:01;12.20;99.90
56076;DHT22;41951;49.022;12.066;2023-08-07T09:04:27;12.20;99.90
56076;DHT22;41951;49.022;12.066;2023-08-07T09:06:53;12.20;99.90
56076;DHT22;41951;49.022;12.066;2023-08-07T09:09:20;12.20;99.90
56076;DHT22;41951;49.022;12.066;2023-08-07T09:11:47;12.20;99.90
56076;DHT22;41951;49.022;12.066;2023-08-07T09:14:16;12.10;99.90
56076;DHT22;41951;49.022;12.066;2023-08-07T09:16:48;12.20;99.90
56076;DHT22;41951;49.022;12.066;2023-08-07T09:19:15;12.10;99.90
56076;DHT22;41951;49.022;12.066;2023-08-07T09:21:40;12.10;99.90
56076;DHT22;41951;49.022;12.066;2023-08-07T09:24:06;12.10;99.90
56076;DHT22;41951;49.022;12.066;2023-08-07T09:26:32;12.00;99.90
56076;DHT22;41951;49.022;12.066;2023-08-07T09:28:59;12.00;99.90
56076;DHT22;41951;49.022;12.066;2023-08-07T09:31:26;12.00;99.90
56076;DHT22;41951;49.022;12.066;2023-08-07T09:33:51;11.90;99.90
56076;DHT22;41951;49.022;12.066;2023-08-07T09:36:17;12.00;99.90
56076;DHT22;41951;49.022;12.066;2023-08-07T09:38:44;12.00;99.90
56076;DHT22;41951;49.022;12.066;2023-08-07T09:41:09;12.10;99.90
56076;DHT22;41951;49.022;12.066;2023-08-07T09:43:36;12.10;99.90
56076;DHT22;41951;49.022;12.066;2023-08-07T09:46:06;12.00;99.90
56076;DHT22;41951;49.022;12.066;2023-08-07T09:48:32;12.00;99.90
56076;DHT22;41951;49.022;12.066;2023-08-07T09:51:01;12.10;99.90
56076;DHT22;41951;49.022;12.066;2023-08-07T09:53:30;12.10;99.90
56076;DHT22;41951;49.022;12.066;2023-08-07T09:55:56;12.10;99.90
56076;DHT22;41951;49.022;12.066;2023-08-07T09:58:23;12.10;99.90
56076;DHT22;41951;49.022;12.066;2023-08-07T10:00:49;12.10;99.90
56076;DHT22;41951;49.022;12.066;2023-08-07T10:03:15;12.10;99.90
56076;DHT22;41951;49.022;12.066;2023-08-07T10:05:43;12.20;99.90
56076;DHT22;41951;49.022;12.066;2023-08-07T10:08:10;12.20;99.90
56076;DHT22;41951;49.022;12.066;2023-08-07T10:10:37;12.20;99.90
56076;DHT22;41951;49.022;12.066;2023-08-07T10:13:03;12.20;99.90
56076;DHT22;41951;49.022;12.066;2023-08-07T10:15:29;12.30;99.90
56076;DHT22;41951;49.022;12.066;2023-08-07T10:17:56;12.30;99.90
56076;DHT22;41951;49.022;12.066;2023-08-07T10:20:23;12.40;99.90
56076;DHT22;41951;49.022;12.066;2023-08-07T10:22:50;12.40;99.90
56076;DHT22;41951;49.022;12.066;2023-08-07T10:25:20;12.50;99.90
56076;DHT22;41951;49.022;12.066;2023-08-07T10:27:48;12.50;99.90
56076;DHT22;41951;49.022;12.066;2023-08-07T10:30:16;12.60;99.90
56076;DHT22;41951;49.022;12.066;2023-08-07T10:32:44;12.70;99.90
56076;DHT22;41951;49.022;12.066;2023-08-07T10:35:23;12.70;99.90
56076;DHT22;41951;49.022;12.066;2023-08-07T10:37:51;12.80;99.90
56076;DHT22;41951;49.022;12.066;2023-08-07T10:40:17;12.90;99.90
56076;DHT22;41951;49.022;12.066;2023-08-07T10:43:00;13.00;99.90
56076;DHT22;41951;49.022;12.066;2023-08-07T10:45:36;13.10;99.90
56076;DHT22;41951;49.022;12.066;2023-08-07T10:48:08;13.10;99.90
56076;DHT22;41951;49.022;12.066;2023-08-07T10:53:32;13.10;99.90
56076;DHT22;41951;49.022;12.066;2023-08-07T10:56:29;13.20;99.90
56076;DHT22;41951;49.022;12.066;2023-08-07T10:58:55;13.20;99.90
56076;DHT22;41951;49.022;12.066;2023-08-07T11:03:57;13.20;99.90
56076;DHT22;41951;49.022;12.066;2023-08-07T11:08:52;13.20;99.90
56076;DHT22;41951;49.022;12.066;2023-08-07T11:11:18;13.20;99.90
56076;DHT22;41951;49.022;12.066;2023-08-07T11:13:44;13.20;99.90
56076;DHT22;41951;49.022;12.066;2023-08-07T11:16:10;13.20;99.90
56076;DHT22;41951;49.022;12.066;2023-08-07T11:18:37;13.20;99.90
56076;DHT22;41951;49.022;12.066;2023-08-07T11:21:09;13.30;99.90
56076;DHT22;41951;49.022;12.066;2023-08-07T11:23:39;13.40;99.90
56076;DHT22;41951;49.022;12.066;2023-08-07T11:26:05;13.40;99.90
56076;DHT22;41951;49.022;12.066;2023-08-07T11:28:31;13.60;99.90
56076;DHT22;41951;49.022;12.066;2023-08-07T11:30:57;13.50;99.90
56076;DHT22;41951;49.022;12.066;2023-08-07T11:33:26;13.50;99.90
56076;DHT22;41951;49.022;12.066;2023-08-07T11:35:53;13.50;99.90
56076;DHT22;41951;49.022;12.066;2023-08-07T11:38:38;13.50;99.90
56076;DHT22;41951;49.022;12.066;2023-08-07T11:41:06;13.50;99.90
56076;DHT22;41951;49.022;12.066;2023-08-07T11:43:33;13.50;99.90
56076;DHT22;41951;49.022;12.066;2023-08-07T11:46:01;13.30;99.90
56076;DHT22;41951;49.022;12.066;2023-08-07T11:48:28;13.30;99.90
56076;DHT22;41951;49.022;12.066;2023-08-07T11:50:55;13.40;99.90
56076;DHT22;41951;49.022;12.066;2023-08-07T11:53:21;13.50;99.90
56076;DHT22;41951;49.022;12.066;2023-08-07T11:55:52;13.60;99.90
56076;DHT22;41951;49.022;12.066;2023-08-07T11:58:19;13.60;99.90
56076;DHT22;41951;49.022;12.066;2023-08-07T12:00:45;13.60;99.90
56076;DHT22;41951;49.022;12.066;2023-08-07T12:03:31;13.60;99.90
56076;DHT22;41951;49.022;12.066;2023-08-07T12:05:59;13.40;99.90
56076;DHT22;41951;49.022;12.066;2023-08-07T12:08:37;13.40;99.90
56076;DHT22;41951;49.022;12.066;2023-08-07T12:11:04;13.40;99.90
56076;DHT22;41951;49.022;12.066;2023-08-07T12:13:31;13.50;99.90
56076;DHT22;41951;49.022;12.066;2023-08-07T12:15:58;13.40;99.90
56076;DHT22;41951;49.022;12.066;2023-08-07T12:18:26;13.40;99.90
56076;DHT22;41951;49.022;12.066;2023-08-07T12:20:54;13.30;99.90
56076;DHT22;41951;49.022;12.066;2023-08-07T12:23:22;13.30;99.90
56076;DHT22;41951;49.022;12.066;2023-08-07T12:25:48;13.20;99.90
56076;DHT22;41951;49.022;12.066;2023-08-07T12:28:15;13.20;99.90
56076;DHT22;41951;49.022;12.066;2023-08-07T12:30:47;13.20;99.90
56076;DHT22;41951;49.022;12.066;2023-08-07T12:33:13;13.20;99.90
56076;DHT22;41951;49.022;12.066;2023-08-07T12:35:39;13.20;99.90
56076;DHT22;41951;49.022;12.066;2023-08-07T12:38:05;13.30;99.90
56076;DHT22;41951;49.022;12.066;2023-08-07T12:40:31;13.40;99.90
56076;DHT22;41951;49.022;12.066;2023-08-07T12:42:58;13.40;99.90
56076;DHT22;41951;49.022;12.066;2023-08-07T12:45:23;13.60;99.90
56076;DHT22;41951;49.022;12.066;2023-08-07T12:47:49;13.70;99.90
56076;DHT22;41951;49.022;12.066;2023-08-07T12:50:15;13.80;99.90
56076;DHT22;41951;49.022;12.066;2023-08-07T12:52:41;13.90;99.90
56076;DHT22;41951;49.022;12.066;2023-08-07T12:55:06;14.20;99.90
56076;DHT22;41951;49.022;12.066;2023-08-07T12:57:33;14.60;99.90
56076;DHT22;41951;49.022;12.066;2023-08-07T12:59:58;14.90;99.90
56076;DHT22;41951;49.022;12.066;2023-08-07T13:02:24;14.80;99.90
56076;DHT22;41951;49.022;12.066;2023-08-07T13:04:49;14.80;99.90
56076;DHT22;41951;49.022;12.066;2023-08-07T13:07:16;14.90;99.90
56076;DHT22;41951;49.022;12.066;2023-08-07T13:09:42;14.70;99.90
56076;DHT22;41951;49.022;12.066;2023-08-07T13:12:08;14.60;99.90
56076;DHT22;41951;49.022;12.066;2023-08-07T13:14:33;14.70;99.90
56076;DHT22;41951;49.022;12.066;2023-08-07T13:16:59;14.80;99.90
56076;DHT22;41951;49.022;12.066;2023-08-07T13:19:25;15.10;99.90
56076;DHT22;41951;49.022;12.066;2023-08-07T13:21:50;15.20;99.90
56076;DHT22;41951;49.022;12.066;2023-08-07T13:24:16;15.20;99.90
56076;DHT22;41951;49.022;12.066;2023-08-07T13:26:41;15.30;99.90
56076;DHT22;41951;49.022;12.066;2023-08-07T13:29:14;15.50;99.90
56076;DHT22;41951;49.022;12.066;2023-08-07T13:31:40;15.40;99.90
56076;DHT22;41951;49.022;12.066;2023-08-07T13:34:11;15.20;99.90
56076;DHT22;41951;49.022;12.066;2023-08-07T13:36:38;15.20;99.90
56076;DHT22;41951;49.022;12.066;2023-08-07T13:39:04;15.00;99.90
56076;DHT22;41951;49.022;12.066;2023-08-07T13:41:30;14.90;99.90
56076;DHT22;41951;49.022;12.066;2023-08-07T13:43:56;14.80;99.90
56076;DHT22;41951;49.022;12.066;2023-08-07T13:46:22;14.80;99.90
56076;DHT22;41951;49.022;12.066;2023-08-07T13:48:47;14.90;99.90
56076;DHT22;41951;49.022;12.066;2023-08-07T13:51:17;15.10;99.90
56076;DHT22;41951;49.022;12.066;2023-08-07T13:53:43;15.10;99.90
56076;DHT22;41951;49.022;12.066;2023-08-07T13:56:09;15.00;99.90
56076;DHT22;41951;49.022;12.066;2023-08-07T13:58:40;15.10;99.90
56076;DHT22;41951;49.022;12.066;2023-08-07T14:01:06;15.10;99.90
56076;DHT22;41951;49.022;12.066;2023-08-07T14:03:31;15.00;99.90
56076;DHT22;41951;49.022;12.066;2023-08-07T14:05:57;15.00;99.90
56076;DHT22;41951;49.022;12.066;2023-08-07T14:08:23;14.90;99.90
56076;DHT22;41951;49.022;12.066;2023-08-07T14:10:49;14.90;99.90
56076;DHT22;41951;49.022;12.066;2023-08-07T14:13:15;14.90;99.90
56076;DHT22;41951;49.022;12.066;2023-08-07T14:15:41;15.00;99.90
56076;DHT22;41951;49.022;12.066;2023-08-07T14:18:06;14.90;99.90
56076;DHT22;41951;49.022;12.066;2023-08-07T14:20:32;15.00;99.90
56076;DHT22;41951;49.022;12.066;2023-08-07T14:22:57;14.80;99.90
56076;DHT22;41951;49.022;12.066;2023-08-07T14:25:24;14.70;99.90
56076;DHT22;41951;49.022;12.066;2023-08-07T14:27:50;14.60;99.90
56076;DHT22;41951;49.022;12.066;2023-08-07T14:30:15;14.40;99.90
56076;DHT22;41951;49.022;12.066;2023-08-07T14:32:41;14.40;99.90
56076;DHT22;41951;49.022;12.066;2023-08-07T14:35:12;14.40;99.90
56076;DHT22;41951;49.022;12.066;2023-08-07T14:37:39;13.60;99.90
56076;DHT22;41951;49.022;12.066;2023-08-07T14:40:05;14.40;99.90
56076;DHT22;41951;49.022;12.066;2023-08-07T14:42:31;14.40;99.90
56076;DHT22;41951;49.022;12.066;2023-08-07T14:44:56;14.40;99.90
56076;DHT22;41951;49.022;12.066;2023-08-07T14:47:22;14.50;99.90
56076;DHT22;41951;49.022;12.066;2023-08-07T14:49:48;14.40;99.90
56076;DHT22;41951;49.022;12.066;2023-08-07T14:52:13;14.60;99.90
56076;DHT22;41951;49.022;12.066;2023-08-07T14:54:39;14.50;99.90
56076;DHT22;41951;49.022;12.066;2023-08-07T14:57:04;14.50;99.90
56076;DHT22;41951;49.022;12.066;2023-08-07T14:59:30;14.50;99.90
56076;DHT22;41951;49.022;12.066;2023-08-07T15:01:56;14.40;99.90
56076;DHT22;41951;49.022;12.066;2023-08-07T15:04:21;14.40;99.90
56076;DHT22;41951;49.022;12.066;2023-08-07T15:06:47;14.20;99.90
56076;DHT22;41951;49.022;12.066;2023-08-07T15:09:14;14.20;99.90
56076;DHT22;41951;49.022;12.066;2023-08-07T15:11:40;14.10;99.90
56076;DHT22;41951;49.022;12.066;2023-08-07T15:14:05;13.90;99.90
56076;DHT22;41951;49.022;12.066;2023-08-07T15:16:31;13.80;99.90
56076;DHT22;41951;49.022;12.066;2023-08-07T15:18:57;13.70;99.90
56076;DHT22;41951;49.022;12.066;2023-08-07T15:21:23;13.60;99.90
56076;DHT22;41951;49.022;12.066;2023-08-07T15:23:48;13.40;99.90